sensor_id;sensor_type;location;lat;lon;timestamp;pressure;altitude;pressure_sealevel;temperature;humidity
76126;BME280;65174;48.138;21.002;2023-03-05T00:01:30;98917.88;;;2.47;60.94
76126;BME280;65174;48.138;21.002;2023-03-05T00:04:34;98921.41;;;2.43;61.46
76126;BME280;65174;48.138;21.002;2023-03-05T00:07:36;98926.66;;;2.60;60.71
76126;BME280;65174;48.138;21.002;2023-03-05T00:10:38;98926.22;;;2.71;60.19
76126;BME280;65174;48.138;21.002;2023-03-05T00:13:41;98926.97;;;2.74;60.40
76126;BME280;65174;48.138;21.002;2023-03-05T00:16:43;98929.25;;;2.80;60.24
76126;BME280;65174;48.138;21.002;2023-03-05T00:19:45;98928.59;;;2.75;61.00
76126;BME280;65174;48.138;21.002;2023-03-05T00:22:48;98930.31;;;2.75;60.27
76126;BME280;65174;48.138;21.002;2023-03-05T00:25:50;98932.09;;;2.73;60.24
76126;BME280;65174;48.138;21.002;2023-03-05T00:28:53;98932.91;;;2.73;60.75
76126;BME280;65174;48.138;21.002;2023-03-05T00:31:56;98932.34;;;2.67;60.98
76126;BME280;65174;48.138;21.002;2023-03-05T00:34:59;98932.53;;;2.62;61.57
76126;BME280;65174;48.138;21.002;2023-03-05T00:38:01;98931.16;;;2.54;62.79
76126;BME280;65174;48.138;21.002;2023-03-05T00:41:03;98935.13;;;2.61;61.70
76126;BME280;65174;48.138;21.002;2023-03-05T00:44:05;98933.66;;;2.55;61.99
76126;BME280;65174;48.138;21.002;2023-03-05T00:47:07;98933.16;;;2.47;62.16
76126;BME280;65174;48.138;21.002;2023-03-05T00:50:10;98929.03;;;2.43;62.54
76126;BME280;65174;48.138;21.002;2023-03-05T00:53:13;98927.34;;;2.43;62.38
76126;BME280;65174;48.138;21.002;2023-03-05T00:56:15;98920.94;;;2.33;62.92
76126;BME280;65174;48.138;21.002;2023-03-05T00:59:17;98917.41;;;2.37;62.82
76126;BME280;65174;48.138;21.002;2023-03-05T01:02:20;98921.81;;;2.54;62.24
76126;BME280;65174;48.138;21.002;2023-03-05T01:05:22;98917.25;;;2.62;62.00
76126;BME280;65174;48.138;21.002;2023-03-05T01:08:25;98920.31;;;2.70;60.69
76126;BME280;65174;48.138;21.002;2023-03-05T01:11:28;98919.25;;;2.76;60.60
76126;BME280;65174;48.138;21.002;2023-03-05T01:14:30;98915.53;;;2.83;59.80
76126;BME280;65174;48.138;21.002;2023-03-05T01:17:33;98917.13;;;2.85;59.91
76126;BME280;65174;48.138;21.002;2023-03-05T01:20:35;98916.19;;;2.88;59.74
76126;BME280;65174;48.138;21.002;2023-03-05T01:23:38;98919.44;;;2.91;59.89
76126;BME280;65174;48.138;21.002;2023-03-05T01:26:41;98924.53;;;2.91;60.23
76126;BME280;65174;48.138;21.002;2023-03-05T01:29:43;98928.81;;;2.91;59.72
76126;BME280;65174;48.138;21.002;2023-03-05T01:32:45;98926.63;;;2.82;60.29
76126;BME280;65174;48.138;21.002;2023-03-05T01:35:48;98930.13;;;2.79;60.42
76126;BME280;65174;48.138;21.002;2023-03-05T01:38:51;98925.22;;;2.75;60.30
76126;BME280;65174;48.138;21.002;2023-03-05T01:41:53;98926.22;;;2.71;60.35
76126;BME280;65174;48.138;21.002;2023-03-05T01:45:10;98927.72;;;2.34;62.08
76126;BME280;65174;48.138;21.002;2023-03-05T01:48:12;98928.25;;;2.42;62.17
76126;BME280;65174;48.138;21.002;2023-03-05T01:51:16;98930.50;;;2.05;64.27
76126;BME280;65174;48.138;21.002;2023-03-05T01:54:21;98920.59;;;1.76;65.16
76126;BME280;65174;48.138;21.002;2023-03-05T01:57:26;98928.97;;;1.80;66.10
76126;BME280;65174;48.138;21.002;2023-03-05T02:00:34;98926.94;;;2.11;64.30
76126;BME280;65174;48.138;21.002;2023-03-05T02:03:39;98924.59;;;2.26;63.96
76126;BME280;65174;48.138;21.002;2023-03-05T02:06:42;98915.44;;;2.22;64.20
76126;BME280;65174;48.138;21.002;2023-03-05T02:09:46;98913.31;;;2.12;64.28
76126;BME280;65174;48.138;21.002;2023-03-05T02:12:49;98912.34;;;1.93;65.37
76126;BME280;65174;48.138;21.002;2023-03-05T02:15:52;98919.53;;;2.05;65.35
76126;BME280;65174;48.138;21.002;2023-03-05T02:18:55;98914.56;;;2.02;66.56
76126;BME280;65174;48.138;21.002;2023-03-05T02:21:57;98918.47;;;2.10;65.19
76126;BME280;65174;48.138;21.002;2023-03-05T02:25:00;98906.94;;;2.23;63.29
76126;BME280;65174;48.138;21.002;2023-03-05T02:28:07;98907.56;;;2.28;63.05
76126;BME280;65174;48.138;21.002;2023-03-05T02:31:16;98913.78;;;2.43;63.09
76126;BME280;65174;48.138;21.002;2023-03-05T02:34:18;98919.66;;;2.45;63.72
76126;BME280;65174;48.138;21.002;2023-03-05T02:37:21;98911.97;;;2.25;63.70
76126;BME280;65174;48.138;21.002;2023-03-05T02:40:25;98906.06;;;2.03;64.66
76126;BME280;65174;48.138;21.002;2023-03-05T02:43:27;98914.84;;;1.94;64.37
76126;BME280;65174;48.138;21.002;2023-03-05T02:46:29;98918.16;;;1.96;65.41
76126;BME280;65174;48.138;21.002;2023-03-05T02:49:32;98919.22;;;1.91;65.16
76126;BME280;65174;48.138;21.002;2023-03-05T02:52:34;98917.63;;;1.88;65.22
76126;BME280;65174;48.138;21.002;2023-03-05T02:55:38;98917.50;;;1.91;64.22
76126;BME280;65174;48.138;21.002;2023-03-05T02:58:40;98904.31;;;2.03;63.21
76126;BME280;65174;48.138;21.002;2023-03-05T03:01:43;98918.41;;;2.12;62.72
76126;BME280;65174;48.138;21.002;2023-03-05T03:04:45;98913.81;;;2.21;61.89
76126;BME280;65174;48.138;21.002;2023-03-05T03:07:48;98918.50;;;2.52;60.13
76126;BME280;65174;48.138;21.002;2023-03-05T03:10:50;98916.44;;;2.62;59.65
76126;BME280;65174;48.138;21.002;2023-03-05T03:13:52;98914.59;;;2.65;59.96
76126;BME280;65174;48.138;21.002;2023-03-05T03:16:54;98909.91;;;2.55;59.44
76126;BME280;65174;48.138;21.002;2023-03-05T03:19:57;98896.75;;;2.23;60.77
76126;BME280;65174;48.138;21.002;2023-03-05T03:22:59;98907.00;;;2.00;60.91
76126;BME280;65174;48.138;21.002;2023-03-05T03:26:01;98901.50;;;2.32;59.74
76126;BME280;65174;48.138;21.002;2023-03-05T03:29:04;98906.09;;;2.45;60.28
76126;BME280;65174;48.138;21.002;2023-03-05T03:32:06;98913.22;;;2.36;59.84
76126;BME280;65174;48.138;21.002;2023-03-05T03:35:11;98913.97;;;2.17;61.73
76126;BME280;65174;48.138;21.002;2023-03-05T03:38:14;98914.75;;;1.51;65.78
76126;BME280;65174;48.138;21.002;2023-03-05T03:41:16;98924.28;;;1.46;64.66
76126;BME280;65174;48.138;21.002;2023-03-05T03:44:20;98918.78;;;1.33;65.45
76126;BME280;65174;48.138;21.002;2023-03-05T03:47:22;98914.25;;;1.18;66.65
76126;BME280;65174;48.138;21.002;2023-03-05T03:50:24;98920.22;;;1.17;66.92
76126;BME280;65174;48.138;21.002;2023-03-05T03:53:27;98920.81;;;0.99;67.34
76126;BME280;65174;48.138;21.002;2023-03-05T03:56:29;98918.13;;;1.04;67.04
76126;BME280;65174;48.138;21.002;2023-03-05T03:59:31;98924.34;;;0.95;67.44
76126;BME280;65174;48.138;21.002;2023-03-05T04:02:33;98921.19;;;1.13;67.51
76126;BME280;65174;48.138;21.002;2023-03-05T04:05:35;98914.34;;;0.91;67.82
76126;BME280;65174;48.138;21.002;2023-03-05T04:08:37;98902.06;;;0.78;68.40
76126;BME280;65174;48.138;21.002;2023-03-05T04:11:39;98912.28;;;1.02;68.08
76126;BME280;65174;48.138;21.002;2023-03-05T04:14:43;98922.34;;;1.28;67.81
76126;BME280;65174;48.138;21.002;2023-03-05T04:17:45;98925.94;;;1.22;66.22
76126;BME280;65174;48.138;21.002;2023-03-05T04:20:47;98916.84;;;1.17;66.03
76126;BME280;65174;48.138;21.002;2023-03-05T04:23:49;98924.56;;;1.14;66.61
76126;BME280;65174;48.138;21.002;2023-03-05T04:26:52;98910.22;;;1.13;66.57
76126;BME280;65174;48.138;21.002;2023-03-05T04:29:54;98914.03;;;1.00;66.63
76126;BME280;65174;48.138;21.002;2023-03-05T04:32:56;98901.22;;;1.03;66.59
76126;BME280;65174;48.138;21.002;2023-03-05T04:35:58;98887.72;;;1.02;65.95
76126;BME280;65174;48.138;21.002;2023-03-05T04:39:01;98895.09;;;1.33;66.16
76126;BME280;65174;48.138;21.002;2023-03-05T04:42:03;98900.19;;;1.56;64.48
76126;BME280;65174;48.138;21.002;2023-03-05T04:45:06;98896.38;;;1.68;62.82
76126;BME280;65174;48.138;21.002;2023-03-05T04:48:10;98902.16;;;1.71;62.17
76126;BME280;65174;48.138;21.002;2023-03-05T04:51:12;98904.09;;;1.88;62.59
76126;BME280;65174;48.138;21.002;2023-03-05T04:54:14;98902.00;;;1.76;63.49
76126;BME280;65174;48.138;21.002;2023-03-05T04:57:16;98901.19;;;1.97;62.22
76126;BME280;65174;48.138;21.002;2023-03-05T05:00:19;98906.31;;;1.95;61.43
76126;BME280;65174;48.138;21.002;2023-03-05T05:03:21;98908.41;;;2.07;60.29
76126;BME280;65174;48.138;21.002;2023-03-05T05:06:24;98899.44;;;1.99;60.74
76126;BME280;65174;48.138;21.002;2023-03-05T05:09:26;98903.69;;;1.98;61.03
76126;BME280;65174;48.138;21.002;2023-03-05T05:12:29;98897.88;;;2.16;60.28
76126;BME280;65174;48.138;21.002;2023-03-05T05:15:31;98896.63;;;2.26;59.97
76126;BME280;65174;48.138;21.002;2023-03-05T05:18:34;98892.91;;;2.13;60.98
76126;BME280;65174;48.138;21.002;2023-03-05T05:21:36;98908.41;;;2.07;60.94
76126;BME280;65174;48.138;21.002;2023-03-05T05:24:38;98908.63;;;2.01;61.74
76126;BME280;65174;48.138;21.002;2023-03-05T05:27:41;98917.41;;;1.94;62.27
76126;BME280;65174;48.138;21.002;2023-03-05T05:30:43;98922.75;;;1.87;62.49
76126;BME280;65174;48.138;21.002;2023-03-05T05:33:45;98921.81;;;1.89;62.60
76126;BME280;65174;48.138;21.002;2023-03-05T05:36:50;98921.72;;;1.92;62.61
76126;BME280;65174;48.138;21.002;2023-03-05T05:39:53;98920.66;;;1.98;61.43
76126;BME280;65174;48.138;21.002;2023-03-05T05:42:55;98933.03;;;2.07;60.29
76126;BME280;65174;48.138;21.002;2023-03-05T05:45:59;98934.28;;;1.74;63.85
76126;BME280;65174;48.138;21.002;2023-03-05T05:49:01;98944.00;;;1.63;64.74
76126;BME280;65174;48.138;21.002;2023-03-05T05:52:04;98945.06;;;1.57;64.86
76126;BME280;65174;48.138;21.002;2023-03-05T05:55:06;98941.16;;;1.47;64.92
76126;BME280;65174;48.138;21.002;2023-03-05T05:58:09;98947.22;;;1.44;65.51
76126;BME280;65174;48.138;21.002;2023-03-05T06:01:31;98954.56;;;1.52;65.54
76126;BME280;65174;48.138;21.002;2023-03-05T06:04:34;98948.75;;;1.48;66.12
76126;BME280;65174;48.138;21.002;2023-03-05T06:07:37;98951.84;;;1.56;65.77
76126;BME280;65174;48.138;21.002;2023-03-05T06:10:39;98953.25;;;1.65;64.34
76126;BME280;65174;48.138;21.002;2023-03-05T06:13:41;98954.09;;;1.87;63.00
76126;BME280;65174;48.138;21.002;2023-03-05T06:16:43;98959.91;;;1.91;64.29
76126;BME280;65174;48.138;21.002;2023-03-05T06:19:46;98960.91;;;1.87;63.60
76126;BME280;65174;48.138;21.002;2023-03-05T06:22:48;98959.63;;;1.98;63.23
76126;BME280;65174;48.138;21.002;2023-03-05T06:25:51;98957.78;;;2.02;63.88
76126;BME280;65174;48.138;21.002;2023-03-05T06:28:53;98961.03;;;2.05;62.78
76126;BME280;65174;48.138;21.002;2023-03-05T06:31:55;98960.72;;;2.14;63.39
76126;BME280;65174;48.138;21.002;2023-03-05T06:34:57;98957.28;;;2.15;63.63
76126;BME280;65174;48.138;21.002;2023-03-05T06:38:00;98949.13;;;2.29;63.08
76126;BME280;65174;48.138;21.002;2023-03-05T06:41:08;98965.81;;;2.36;62.66
76126;BME280;65174;48.138;21.002;2023-03-05T06:44:11;98967.22;;;2.43;63.26
76126;BME280;65174;48.138;21.002;2023-03-05T06:47:13;98961.84;;;2.29;63.29
76126;BME280;65174;48.138;21.002;2023-03-05T06:50:15;98964.16;;;2.35;62.88
76126;BME280;65174;48.138;21.002;2023-03-05T06:53:18;98969.72;;;2.45;62.02
76126;BME280;65174;48.138;21.002;2023-03-05T06:56:20;98959.94;;;2.56;61.77
76126;BME280;65174;48.138;21.002;2023-03-05T06:59:23;98962.56;;;2.54;62.21
76126;BME280;65174;48.138;21.002;2023-03-05T07:02:25;98960.50;;;2.64;61.92
76126;BME280;65174;48.138;21.002;2023-03-05T07:05:27;98955.84;;;2.52;62.39
76126;BME280;65174;48.138;21.002;2023-03-05T07:08:30;98953.63;;;2.44;62.53
76126;BME280;65174;48.138;21.002;2023-03-05T07:11:32;98954.47;;;2.45;63.21
76126;BME280;65174;48.138;21.002;2023-03-05T07:14:35;98954.84;;;2.56;63.22
76126;BME280;65174;48.138;21.002;2023-03-05T07:17:37;98959.91;;;2.77;64.35
76126;BME280;65174;48.138;21.002;2023-03-05T07:20:39;98960.44;;;2.85;63.96
76126;BME280;65174;48.138;21.002;2023-03-05T07:23:42;98961.00;;;2.72;63.25
76126;BME280;65174;48.138;21.002;2023-03-05T07:26:44;98955.50;;;2.61;63.25
76126;BME280;65174;48.138;21.002;2023-03-05T07:29:49;98954.81;;;2.77;62.82
76126;BME280;65174;48.138;21.002;2023-03-05T07:32:52;98954.97;;;2.94;62.07
76126;BME280;65174;48.138;21.002;2023-03-05T07:35:55;98960.72;;;2.99;65.07
76126;BME280;65174;48.138;21.002;2023-03-05T07:38:57;98958.19;;;2.99;64.19
76126;BME280;65174;48.138;21.002;2023-03-05T07:41:59;98958.22;;;2.98;64.05
76126;BME280;65174;48.138;21.002;2023-03-05T07:45:18;98957.97;;;3.04;64.83
76126;BME280;65174;48.138;21.002;2023-03-05T07:48:20;98960.28;;;3.10;64.48
76126;BME280;65174;48.138;21.002;2023-03-05T08:12:17;98943.84;;;2.97;63.34
76126;BME280;65174;48.138;21.002;2023-03-05T08:15:19;98936.81;;;3.02;63.72
76126;BME280;65174;48.138;21.002;2023-03-05T08:18:21;98939.69;;;3.14;62.52
76126;BME280;65174;48.138;21.002;2023-03-05T08:21:28;98941.06;;;3.42;62.11
76126;BME280;65174;48.138;21.002;2023-03-05T08:24:31;98945.22;;;3.04;61.49
76126;BME280;65174;48.138;21.002;2023-03-05T08:27:37;98944.72;;;3.16;60.04
76126;BME280;65174;48.138;21.002;2023-03-05T08:30:39;98942.69;;;3.24;59.29
76126;BME280;65174;48.138;21.002;2023-03-05T08:33:42;98937.06;;;3.36;58.80
76126;BME280;65174;48.138;21.002;2023-03-05T08:36:44;98936.09;;;3.18;59.54
76126;BME280;65174;48.138;21.002;2023-03-05T08:39:46;98932.44;;;3.05;59.96
76126;BME280;65174;48.138;21.002;2023-03-05T08:42:48;98941.53;;;3.11;59.42
76126;BME280;65174;48.138;21.002;2023-03-05T08:45:52;98931.78;;;3.20;59.28
76126;BME280;65174;48.138;21.002;2023-03-05T08:48:54;98927.09;;;3.11;60.09
76126;BME280;65174;48.138;21.002;2023-03-05T08:51:56;98927.13;;;3.30;60.15
76126;BME280;65174;48.138;21.002;2023-03-05T08:54:59;98923.66;;;3.51;59.19
76126;BME280;65174;48.138;21.002;2023-03-05T08:58:01;98927.28;;;3.46;58.46
76126;BME280;65174;48.138;21.002;2023-03-05T09:01:03;98928.00;;;3.29;58.70
76126;BME280;65174;48.138;21.002;2023-03-05T09:04:06;98914.31;;;3.32;59.49
76126;BME280;65174;48.138;21.002;2023-03-05T09:07:08;98918.63;;;3.50;57.58
76126;BME280;65174;48.138;21.002;2023-03-05T09:10:11;98915.72;;;3.39;58.63
76126;BME280;65174;48.138;21.002;2023-03-05T09:13:15;98917.72;;;3.51;57.83
76126;BME280;65174;48.138;21.002;2023-03-05T09:16:18;98919.88;;;3.60;58.36
76126;BME280;65174;48.138;21.002;2023-03-05T09:19:20;98918.75;;;3.65;57.69
76126;BME280;65174;48.138;21.002;2023-03-05T09:22:23;98915.47;;;3.63;57.36
76126;BME280;65174;48.138;21.002;2023-03-05T09:25:25;98913.94;;;3.78;56.32
76126;BME280;65174;48.138;21.002;2023-03-05T09:28:27;98904.31;;;3.66;57.26
76126;BME280;65174;48.138;21.002;2023-03-05T09:31:29;98911.13;;;3.65;57.63
76126;BME280;65174;48.138;21.002;2023-03-05T09:34:31;98906.34;;;3.95;56.97
76126;BME280;65174;48.138;21.002;2023-03-05T09:37:35;98912.28;;;3.95;57.01
76126;BME280;65174;48.138;21.002;2023-03-05T09:40:59;98911.03;;;3.85;56.93
76126;BME280;65174;48.138;21.002;2023-03-05T09:51:16;98900.00;;;3.48;59.17
76126;BME280;65174;48.138;21.002;2023-03-05T09:54:25;98897.41;;;3.49;59.77
76126;BME280;65174;48.138;21.002;2023-03-05T09:57:38;98898.06;;;3.53;59.81
76126;BME280;65174;48.138;21.002;2023-03-05T10:00:43;98893.19;;;3.48;60.65
76126;BME280;65174;48.138;21.002;2023-03-05T10:03:54;98897.00;;;3.77;60.02
76126;BME280;65174;48.138;21.002;2023-03-05T10:07:03;98901.19;;;3.78;60.13
76126;BME280;65174;48.138;21.002;2023-03-05T10:10:13;98883.69;;;3.52;60.56
76126;BME280;65174;48.138;21.002;2023-03-05T10:13:24;98888.78;;;3.70;60.41
76126;BME280;65174;48.138;21.002;2023-03-05T10:19:40;98882.03;;;4.24;57.90
76126;BME280;65174;48.138;21.002;2023-03-05T10:30:06;98867.63;;;4.57;55.29
76126;BME280;65174;48.138;21.002;2023-03-05T10:33:21;98858.03;;;4.62;56.00
76126;BME280;65174;48.138;21.002;2023-03-05T10:40:05;98856.53;;;4.58;55.02
76126;BME280;65174;48.138;21.002;2023-03-05T10:46:30;98853.22;;;4.56;55.91
76126;BME280;65174;48.138;21.002;2023-03-05T10:49:46;98844.81;;;4.54;55.58
76126;BME280;65174;48.138;21.002;2023-03-05T10:56:20;98831.66;;;4.44;56.51
76126;BME280;65174;48.138;21.002;2023-03-05T10:59:23;98839.25;;;4.46;56.76
76126;BME280;65174;48.138;21.002;2023-03-05T11:02:25;98832.25;;;4.49;55.83
76126;BME280;65174;48.138;21.002;2023-03-05T11:08:38;98813.41;;;4.69;55.82
76126;BME280;65174;48.138;21.002;2023-03-05T11:11:40;98825.50;;;4.65;56.29
76126;BME280;65174;48.138;21.002;2023-03-05T11:18:25;98817.44;;;4.90;55.71
76126;BME280;65174;48.138;21.002;2023-03-05T11:21:29;98810.00;;;4.86;55.39
76126;BME280;65174;48.138;21.002;2023-03-05T11:24:32;98803.28;;;5.16;54.92
76126;BME280;65174;48.138;21.002;2023-03-05T11:27:37;98802.59;;;5.29;55.06
76126;BME280;65174;48.138;21.002;2023-03-05T11:30:40;98798.13;;;5.17;55.33
76126;BME280;65174;48.138;21.002;2023-03-05T11:34:06;98785.19;;;5.51;54.41
76126;BME280;65174;48.138;21.002;2023-03-05T11:37:31;98780.13;;;5.81;53.11
76126;BME280;65174;48.138;21.002;2023-03-05T11:40:33;98781.38;;;5.58;53.90
76126;BME280;65174;48.138;21.002;2023-03-05T11:43:39;98769.50;;;5.73;53.36
76126;BME280;65174;48.138;21.002;2023-03-05T11:46:50;98763.28;;;5.77;54.37
76126;BME280;65174;48.138;21.002;2023-03-05T11:50:03;98760.56;;;5.96;53.59
76126;BME280;65174;48.138;21.002;2023-03-05T11:53:20;98758.91;;;5.63;53.93
76126;BME280;65174;48.138;21.002;2023-03-05T11:56:28;98747.84;;;5.79;54.69
76126;BME280;65174;48.138;21.002;2023-03-05T11:59:34;98757.84;;;5.99;54.12
76126;BME280;65174;48.138;21.002;2023-03-05T12:02:40;98744.66;;;5.59;55.23
76126;BME280;65174;48.138;21.002;2023-03-05T12:05:47;98742.13;;;6.05;54.05
76126;BME280;65174;48.138;21.002;2023-03-05T12:08:56;98736.94;;;5.91;55.13
76126;BME280;65174;48.138;21.002;2023-03-05T12:12:17;98739.72;;;5.56;55.21
76126;BME280;65174;48.138;21.002;2023-03-05T12:19:22;98729.22;;;5.61;55.23
76126;BME280;65174;48.138;21.002;2023-03-05T12:22:40;98730.44;;;6.15;52.95
76126;BME280;65174;48.138;21.002;2023-03-05T12:25:52;98725.19;;;6.46;51.32
76126;BME280;65174;48.138;21.002;2023-03-05T12:28:57;98726.81;;;6.19;52.49
76126;BME280;65174;48.138;21.002;2023-03-05T12:32:00;98718.97;;;6.50;51.85
76126;BME280;65174;48.138;21.002;2023-03-05T12:35:04;98720.28;;;6.57;52.10
76126;BME280;65174;48.138;21.002;2023-03-05T12:38:29;98707.16;;;6.48;52.65
76126;BME280;65174;48.138;21.002;2023-03-05T12:41:33;98717.56;;;6.16;54.06
76126;BME280;65174;48.138;21.002;2023-03-05T12:44:35;98710.72;;;5.87;54.31
76126;BME280;65174;48.138;21.002;2023-03-05T12:47:45;98708.06;;;5.89;54.62
76126;BME280;65174;48.138;21.002;2023-03-05T12:50:48;98703.41;;;6.39;53.00
76126;BME280;65174;48.138;21.002;2023-03-05T12:53:54;98703.53;;;6.66;50.83
76126;BME280;65174;48.138;21.002;2023-03-05T12:56:59;98698.03;;;6.72;50.78
76126;BME280;65174;48.138;21.002;2023-03-05T13:00:08;98694.75;;;6.70;50.80
76126;BME280;65174;48.138;21.002;2023-03-05T13:03:21;98692.47;;;6.51;50.79
76126;BME280;65174;48.138;21.002;2023-03-05T13:06:28;98690.53;;;6.55;51.76
76126;BME280;65174;48.138;21.002;2023-03-05T13:09:32;98687.97;;;6.40;51.91
76126;BME280;65174;48.138;21.002;2023-03-05T13:12:38;98687.13;;;6.68;51.16
76126;BME280;65174;48.138;21.002;2023-03-05T13:15:45;98675.81;;;6.72;50.46
76126;BME280;65174;48.138;21.002;2023-03-05T13:18:48;98669.94;;;6.42;51.97
76126;BME280;65174;48.138;21.002;2023-03-05T13:22:00;98671.97;;;6.51;51.28
76126;BME280;65174;48.138;21.002;2023-03-05T13:25:15;98673.03;;;6.75;51.70
76126;BME280;65174;48.138;21.002;2023-03-05T13:28:17;98666.91;;;6.21;52.31
76126;BME280;65174;48.138;21.002;2023-03-05T13:31:19;98660.69;;;6.25;52.31
76126;BME280;65174;48.138;21.002;2023-03-05T13:34:34;98660.31;;;6.46;51.53
76126;BME280;65174;48.138;21.002;2023-03-05T13:37:48;98653.47;;;6.46;51.60
76126;BME280;65174;48.138;21.002;2023-03-05T13:44:19;98643.59;;;6.26;51.40
76126;BME280;65174;48.138;21.002;2023-03-05T13:47:26;98637.16;;;6.05;52.08
76126;BME280;65174;48.138;21.002;2023-03-05T13:50:34;98638.16;;;6.16;51.66
76126;BME280;65174;48.138;21.002;2023-03-05T13:53:38;98630.56;;;6.01;52.05
76126;BME280;65174;48.138;21.002;2023-03-05T13:56:55;98632.78;;;6.07;52.64
76126;BME280;65174;48.138;21.002;2023-03-05T13:59:59;98628.03;;;6.15;52.74
76126;BME280;65174;48.138;21.002;2023-03-05T14:03:34;98625.66;;;6.40;51.74
76126;BME280;65174;48.138;21.002;2023-03-05T14:06:41;98623.19;;;6.53;51.23
76126;BME280;65174;48.138;21.002;2023-03-05T14:09:56;98629.03;;;6.40;51.64
76126;BME280;65174;48.138;21.002;2023-03-05T14:13:01;98614.94;;;6.48;51.97
76126;BME280;65174;48.138;21.002;2023-03-05T14:16:10;98621.06;;;6.31;51.94
76126;BME280;65174;48.138;21.002;2023-03-05T14:22:41;98608.75;;;6.09;52.77
76126;BME280;65174;48.138;21.002;2023-03-05T14:25:44;98603.41;;;5.84;52.89
76126;BME280;65174;48.138;21.002;2023-03-05T14:32:24;98606.34;;;6.20;52.60
76126;BME280;65174;48.138;21.002;2023-03-05T14:35:29;98602.16;;;6.19;51.89
76126;BME280;65174;48.138;21.002;2023-03-05T14:38:33;98598.03;;;6.17;52.00
76126;BME280;65174;48.138;21.002;2023-03-05T14:41:40;98595.00;;;6.10;51.97
76126;BME280;65174;48.138;21.002;2023-03-05T14:44:42;98590.84;;;5.80;53.07
76126;BME280;65174;48.138;21.002;2023-03-05T14:47:45;98593.59;;;5.91;52.34
76126;BME280;65174;48.138;21.002;2023-03-05T14:50:50;98592.72;;;6.06;52.00
76126;BME280;65174;48.138;21.002;2023-03-05T14:53:58;98591.53;;;6.11;51.89
76126;BME280;65174;48.138;21.002;2023-03-05T14:57:00;98587.59;;;6.06;51.96
76126;BME280;65174;48.138;21.002;2023-03-05T15:00:03;98589.88;;;6.10;52.11
76126;BME280;65174;48.138;21.002;2023-03-05T15:03:05;98590.09;;;6.07;52.43
76126;BME280;65174;48.138;21.002;2023-03-05T15:06:29;98594.28;;;6.08;52.28
76126;BME280;65174;48.138;21.002;2023-03-05T15:09:34;98570.78;;;6.02;51.93
76126;BME280;65174;48.138;21.002;2023-03-05T15:12:36;98590.16;;;6.06;52.51
76126;BME280;65174;48.138;21.002;2023-03-05T15:15:40;98588.69;;;6.02;52.30
76126;BME280;65174;48.138;21.002;2023-03-05T15:18:43;98593.72;;;6.03;52.72
76126;BME280;65174;48.138;21.002;2023-03-05T15:21:46;98589.53;;;6.02;53.07
76126;BME280;65174;48.138;21.002;2023-03-05T15:24:49;98576.25;;;5.96;52.48
76126;BME280;65174;48.138;21.002;2023-03-05T15:27:51;98588.78;;;5.86;52.68
76126;BME280;65174;48.138;21.002;2023-03-05T15:30:54;98580.47;;;5.97;53.09
76126;BME280;65174;48.138;21.002;2023-03-05T15:33:58;98585.31;;;6.01;53.05
76126;BME280;65174;48.138;21.002;2023-03-05T15:37:02;98589.69;;;5.99;52.44
76126;BME280;65174;48.138;21.002;2023-03-05T15:40:05;98586.41;;;5.97;50.97
76126;BME280;65174;48.138;21.002;2023-03-05T15:43:08;98581.00;;;5.88;50.54
76126;BME280;65174;48.138;21.002;2023-03-05T15:46:10;98584.41;;;5.88;50.29
76126;BME280;65174;48.138;21.002;2023-03-05T15:49:13;98584.25;;;5.76;48.93
76126;BME280;65174;48.138;21.002;2023-03-05T15:52:15;98590.16;;;5.62;47.88
76126;BME280;65174;48.138;21.002;2023-03-05T15:55:18;98590.41;;;5.57;48.12
76126;BME280;65174;48.138;21.002;2023-03-05T15:58:20;98590.34;;;5.59;48.56
76126;BME280;65174;48.138;21.002;2023-03-05T16:01:23;98590.22;;;5.46;48.37
76126;BME280;65174;48.138;21.002;2023-03-05T16:04:27;98587.53;;;5.34;48.88
76126;BME280;65174;48.138;21.002;2023-03-05T16:07:32;98592.16;;;5.27;49.25
76126;BME280;65174;48.138;21.002;2023-03-05T16:10:35;98585.38;;;5.26;49.55
76126;BME280;65174;48.138;21.002;2023-03-05T16:13:40;98593.25;;;5.23;50.06
76126;BME280;65174;48.138;21.002;2023-03-05T16:16:46;98594.84;;;5.10;50.28
76126;BME280;65174;48.138;21.002;2023-03-05T16:19:51;98600.28;;;5.04;50.89
76126;BME280;65174;48.138;21.002;2023-03-05T16:22:55;98603.97;;;4.99;51.29
76126;BME280;65174;48.138;21.002;2023-03-05T16:25:57;98602.00;;;5.04;50.96
76126;BME280;65174;48.138;21.002;2023-03-05T16:29:01;98601.75;;;4.93;51.07
76126;BME280;65174;48.138;21.002;2023-03-05T16:32:04;98603.44;;;4.94;51.13
76126;BME280;65174;48.138;21.002;2023-03-05T16:35:06;98606.22;;;4.89;51.10
76126;BME280;65174;48.138;21.002;2023-03-05T16:38:10;98609.63;;;4.90;51.02
76126;BME280;65174;48.138;21.002;2023-03-05T16:41:14;98611.66;;;4.83;50.26
76126;BME280;65174;48.138;21.002;2023-03-05T16:44:18;98616.78;;;4.83;50.59
76126;BME280;65174;48.138;21.002;2023-03-05T16:47:21;98616.38;;;4.75;50.42
76126;BME280;65174;48.138;21.002;2023-03-05T16:50:24;98616.19;;;4.78;50.55
76126;BME280;65174;48.138;21.002;2023-03-05T16:53:26;98611.41;;;4.72;50.74
76126;BME280;65174;48.138;21.002;2023-03-05T16:56:29;98617.13;;;4.77;51.12
76126;BME280;65174;48.138;21.002;2023-03-05T16:59:31;98616.63;;;4.70;50.92
76126;BME280;65174;48.138;21.002;2023-03-05T17:02:34;98598.47;;;4.59;51.56
76126;BME280;65174;48.138;21.002;2023-03-05T17:05:36;98616.72;;;4.69;51.05
76126;BME280;65174;48.138;21.002;2023-03-05T17:08:40;98616.25;;;4.61;51.60
76126;BME280;65174;48.138;21.002;2023-03-05T17:11:43;98627.31;;;4.61;51.24
76126;BME280;65174;48.138;21.002;2023-03-05T17:14:46;98625.75;;;4.59;50.78
76126;BME280;65174;48.138;21.002;2023-03-05T17:17:49;98626.25;;;4.50;49.64
76126;BME280;65174;48.138;21.002;2023-03-05T17:20:52;98628.69;;;4.51;49.77
76126;BME280;65174;48.138;21.002;2023-03-05T17:23:55;98623.91;;;4.45;49.91
76126;BME280;65174;48.138;21.002;2023-03-05T17:26:58;98636.09;;;4.40;49.56